sensor_id;sensor_type;location;lat;lon;timestamp;pressure;altitude;pressure_sealevel;temperature;humidity
44825;BME280;30542;47.928;2.138;2022-12-29T00:02:20;99708.53;;;19.49;52.32
44825;BME280;30542;47.928;2.138;2022-12-29T00:07:21;99694.94;;;19.46;52.39
44825;BME280;30542;47.928;2.138;2022-12-29T00:12:21;99690.94;;;19.43;52.42
44825;BME280;30542;47.928;2.138;2022-12-29T00:17:21;99691.22;;;19.42;52.54
44825;BME280;30542;47.928;2.138;2022-12-29T00:22:22;99682.16;;;19.32;52.59
44825;BME280;30542;47.928;2.138;2022-12-29T00:27:41;99692.03;;;19.37;52.80
44825;BME280;30542;47.928;2.138;2022-12-29T00:33:00;99697.13;;;19.33;52.98
44825;BME280;30542;47.928;2.138;2022-12-29T00:38:20;99694.72;;;19.32;53.10
44825;BME280;30542;47.928;2.138;2022-12-29T00:43:40;99678.19;;;19.30;52.79
44825;BME280;30542;47.928;2.138;2022-12-29T00:48:59;99672.06;;;19.24;52.92
44825;BME280;30542;47.928;2.138;2022-12-29T00:54:18;99659.00;;;19.18;52.81
44825;BME280;30542;47.928;2.138;2022-12-29T00:59:19;99669.41;;;19.24;53.25
44825;BME280;30542;47.928;2.138;2022-12-29T01:04:25;99650.97;;;19.23;52.97
44825;BME280;30542;47.928;2.138;2022-12-29T01:09:25;99666.19;;;19.22;52.77
44825;BME280;30542;47.928;2.138;2022-12-29T01:14:44;99654.19;;;19.20;53.19
44825;BME280;30542;47.928;2.138;2022-12-29T01:19:45;99650.47;;;19.16;53.16
44825;BME280;30542;47.928;2.138;2022-12-29T01:24:45;99636.06;;;19.11;53.24
44825;BME280;30542;47.928;2.138;2022-12-29T01:29:45;99656.09;;;19.14;52.88
44825;BME280;30542;47.928;2.138;2022-12-29T01:34:46;99648.38;;;19.12;53.10
44825;BME280;30542;47.928;2.138;2022-12-29T01:39:46;99652.09;;;19.11;53.10
44825;BME280;30542;47.928;2.138;2022-12-29T01:49:56;99651.56;;;19.09;53.33
44825;BME280;30542;47.928;2.138;2022-12-29T01:54:58;99646.53;;;19.08;53.03
44825;BME280;30542;47.928;2.138;2022-12-29T02:00:06;99639.56;;;19.07;53.37
44825;BME280;30542;47.928;2.138;2022-12-29T02:05:29;99626.78;;;19.04;53.49
44825;BME280;30542;47.928;2.138;2022-12-29T02:10:34;99625.97;;;19.03;53.19
44825;BME280;30542;47.928;2.138;2022-12-29T02:43:26;99648.41;;;18.97;53.25
44825;BME280;30542;47.928;2.138;2022-12-29T02:48:34;99635.06;;;18.97;53.29
44825;BME280;30542;47.928;2.138;2022-12-29T02:53:38;99642.53;;;18.95;53.04
44825;BME280;30542;47.928;2.138;2022-12-29T02:58:58;99650.03;;;18.93;53.00
44825;BME280;30542;47.928;2.138;2022-12-29T03:20:20;99683.56;;;19.20;53.12
44825;BME280;30542;47.928;2.138;2022-12-29T03:25:33;99677.09;;;19.31;52.53
44825;BME280;30542;47.928;2.138;2022-12-29T03:30:36;99685.59;;;19.43;52.33
44825;BME280;30542;47.928;2.138;2022-12-29T03:35:41;99675.41;;;19.50;52.18
44825;BME280;30542;47.928;2.138;2022-12-29T03:40:44;99673.25;;;19.57;52.35
44825;BME280;30542;47.928;2.138;2022-12-29T03:45:46;99673.22;;;19.63;52.25
44825;BME280;30542;47.928;2.138;2022-12-29T03:50:46;99675.88;;;19.68;51.83
44825;BME280;30542;47.928;2.138;2022-12-29T03:55:47;99681.44;;;19.71;51.75
44825;BME280;30542;47.928;2.138;2022-12-29T04:00:47;99688.09;;;19.74;51.60
44825;BME280;30542;47.928;2.138;2022-12-29T04:05:47;99691.31;;;19.76;51.39
44825;BME280;30542;47.928;2.138;2022-12-29T04:10:49;99686.47;;;19.78;51.49
44825;BME280;30542;47.928;2.138;2022-12-29T04:15:49;99680.88;;;19.79;51.36
44825;BME280;30542;47.928;2.138;2022-12-29T04:20:50;99682.69;;;19.84;51.21
44825;BME280;30542;47.928;2.138;2022-12-29T04:26:07;99693.09;;;19.85;51.43
44825;BME280;30542;47.928;2.138;2022-12-29T04:31:07;99689.09;;;19.88;51.37
44825;BME280;30542;47.928;2.138;2022-12-29T04:36:08;99694.69;;;19.92;51.29
44825;BME280;30542;47.928;2.138;2022-12-29T04:41:09;99701.09;;;19.91;51.32
44825;BME280;30542;47.928;2.138;2022-12-29T04:46:10;99701.31;;;19.94;51.27
44825;BME280;30542;47.928;2.138;2022-12-29T04:51:10;99705.63;;;19.95;51.01
44825;BME280;30542;47.928;2.138;2022-12-29T04:56:11;99720.31;;;19.93;51.42
44825;BME280;30542;47.928;2.138;2022-12-29T05:01:11;99724.53;;;19.99;51.05
44825;BME280;30542;47.928;2.138;2022-12-29T05:06:11;99726.97;;;20.00;51.14
44825;BME280;30542;47.928;2.138;2022-12-29T05:11:12;99725.91;;;19.96;51.06
44825;BME280;30542;47.928;2.138;2022-12-29T05:16:12;99750.47;;;20.03;51.00
44825;BME280;30542;47.928;2.138;2022-12-29T05:21:13;99738.69;;;20.04;51.02
44825;BME280;30542;47.928;2.138;2022-12-29T05:26:13;99735.72;;;20.06;51.44
44825;BME280;30542;47.928;2.138;2022-12-29T05:31:13;99744.00;;;20.09;51.83
44825;BME280;30542;47.928;2.138;2022-12-29T05:36:14;99748.25;;;20.10;52.24
44825;BME280;30542;47.928;2.138;2022-12-29T05:41:14;99763.50;;;20.10;52.06
44825;BME280;30542;47.928;2.138;2022-12-29T05:46:15;99748.00;;;20.07;52.32
44825;BME280;30542;47.928;2.138;2022-12-29T05:51:15;99765.88;;;20.17;53.08
44825;BME280;30542;47.928;2.138;2022-12-29T05:56:15;99771.72;;;20.19;53.90
44825;BME280;30542;47.928;2.138;2022-12-29T06:01:16;99786.72;;;20.20;54.04
44825;BME280;30542;47.928;2.138;2022-12-29T06:06:17;99785.63;;;20.21;53.63
44825;BME280;30542;47.928;2.138;2022-12-29T06:11:17;99800.63;;;20.17;53.36
44825;BME280;30542;47.928;2.138;2022-12-29T06:16:18;99804.91;;;20.18;53.28
44825;BME280;30542;47.928;2.138;2022-12-29T06:21:18;99806.25;;;20.15;53.08
44825;BME280;30542;47.928;2.138;2022-12-29T06:26:19;99821.47;;;20.20;52.71
44825;BME280;30542;47.928;2.138;2022-12-29T06:31:19;99826.84;;;20.20;52.81
44825;BME280;30542;47.928;2.138;2022-12-29T06:36:19;99827.88;;;20.19;52.77
44825;BME280;30542;47.928;2.138;2022-12-29T06:41:20;99829.25;;;20.16;52.49
44825;BME280;30542;47.928;2.138;2022-12-29T06:46:21;99841.50;;;20.22;52.57
44825;BME280;30542;47.928;2.138;2022-12-29T06:51:21;99834.28;;;20.23;52.52
44825;BME280;30542;47.928;2.138;2022-12-29T06:56:22;99839.63;;;20.23;52.36
44825;BME280;30542;47.928;2.138;2022-12-29T07:01:22;99847.66;;;20.23;52.42
44825;BME280;30542;47.928;2.138;2022-12-29T07:06:23;99847.66;;;20.23;52.27
44825;BME280;30542;47.928;2.138;2022-12-29T07:11:23;99841.25;;;20.24;52.27
44825;BME280;30542;47.928;2.138;2022-12-29T07:16:24;99856.22;;;20.25;52.07
44825;BME280;30542;47.928;2.138;2022-12-29T07:21:25;99861.56;;;20.25;51.99
44825;BME280;30542;47.928;2.138;2022-12-29T07:26:25;99871.22;;;20.21;51.90
44825;BME280;30542;47.928;2.138;2022-12-29T07:31:25;99880.78;;;20.27;51.91
44825;BME280;30542;47.928;2.138;2022-12-29T07:36:26;99884.53;;;20.26;51.85
44825;BME280;30542;47.928;2.138;2022-12-29T07:41:26;99874.38;;;20.23;52.03
44825;BME280;30542;47.928;2.138;2022-12-29T07:46:27;99895.00;;;20.22;51.72
44825;BME280;30542;47.928;2.138;2022-12-29T07:51:27;99905.44;;;20.19;51.71
44825;BME280;30542;47.928;2.138;2022-12-29T07:56:27;99903.84;;;20.18;51.82
44825;BME280;30542;47.928;2.138;2022-12-29T08:01:28;99910.25;;;20.22;51.65
44825;BME280;30542;47.928;2.138;2022-12-29T08:06:28;99913.44;;;20.24;51.78
44825;BME280;30542;47.928;2.138;2022-12-29T08:11:30;99915.84;;;20.25;51.74
44825;BME280;30542;47.928;2.138;2022-12-29T08:16:31;99920.09;;;20.26;51.69
44825;BME280;30542;47.928;2.138;2022-12-29T08:21:32;99917.97;;;20.28;51.76
44825;BME280;30542;47.928;2.138;2022-12-29T08:26:32;99934.03;;;20.28;51.41
44825;BME280;30542;47.928;2.138;2022-12-29T08:31:33;99925.41;;;20.31;51.52
44825;BME280;30542;47.928;2.138;2022-12-29T08:36:33;99940.13;;;20.34;51.37
44825;BME280;30542;47.928;2.138;2022-12-29T08:41:34;99931.56;;;20.32;51.39
44825;BME280;30542;47.928;2.138;2022-12-29T08:46:34;99951.09;;;20.38;51.28
44825;BME280;30542;47.928;2.138;2022-12-29T08:51:35;99961.22;;;20.51;51.18
44825;BME280;30542;47.928;2.138;2022-12-29T08:56:35;99974.88;;;20.49;50.90
44825;BME280;30542;47.928;2.138;2022-12-29T09:01:35;99973.00;;;20.45;51.04
44825;BME280;30542;47.928;2.138;2022-12-29T09:06:36;99969.50;;;20.44;50.87
44825;BME280;30542;47.928;2.138;2022-12-29T09:11:36;99986.63;;;20.43;51.13
44825;BME280;30542;47.928;2.138;2022-12-29T09:16:37;99990.38;;;20.42;51.16
44825;BME280;30542;47.928;2.138;2022-12-29T09:21:38;99995.72;;;20.42;51.09
44825;BME280;30542;47.928;2.138;2022-12-29T09:26:38;100005.34;;;20.43;51.20
44825;BME280;30542;47.928;2.138;2022-12-29T09:31:39;100004.00;;;20.46;51.12
44825;BME280;30542;47.928;2.138;2022-12-29T09:36:39;99996.78;;;20.46;51.06
44825;BME280;30542;47.928;2.138;2022-12-29T09:41:48;99989.84;;;20.45;50.99
44825;BME280;30542;47.928;2.138;2022-12-29T09:46:51;99987.41;;;20.54;51.00
44825;BME280;30542;47.928;2.138;2022-12-29T09:51:57;99985.53;;;20.54;51.50
44825;BME280;30542;47.928;2.138;2022-12-29T09:57:00;99993.53;;;20.59;51.45
44825;BME280;30542;47.928;2.138;2022-12-29T10:13:43;99993.53;;;20.59;50.98
44825;BME280;30542;47.928;2.138;2022-12-29T10:24:26;100014.16;;;20.59;50.98
44825;BME280;30542;47.928;2.138;2022-12-29T10:29:32;99996.75;;;20.56;51.09
44825;BME280;30542;47.928;2.138;2022-12-29T10:34:39;100001.06;;;20.57;51.24
44825;BME280;30542;47.928;2.138;2022-12-29T10:39:49;100005.31;;;20.58;51.14
44825;BME280;30542;47.928;2.138;2022-12-29T10:44:51;100010.41;;;20.55;51.25
44825;BME280;30542;47.928;2.138;2022-12-29T10:49:52;100010.13;;;20.56;51.22
44825;BME280;30542;47.928;2.138;2022-12-29T10:55:02;99993.56;;;20.54;51.20
44825;BME280;30542;47.928;2.138;2022-12-29T11:00:18;99982.84;;;20.59;51.12
44825;BME280;30542;47.928;2.138;2022-12-29T11:15:44;99980.63;;;20.72;50.90
44825;BME280;30542;47.928;2.138;2022-12-29T11:20:45;99982.22;;;20.78;50.72
44825;BME280;30542;47.928;2.138;2022-12-29T11:25:45;99957.84;;;20.79;50.61
44825;BME280;30542;47.928;2.138;2022-12-29T11:30:59;99966.06;;;20.88;50.53
44825;BME280;30542;47.928;2.138;2022-12-29T11:36:05;99969.75;;;20.97;51.04
44825;BME280;30542;47.928;2.138;2022-12-29T11:41:11;99967.31;;;21.01;51.45
44825;BME280;30542;47.928;2.138;2022-12-29T11:46:19;99963.31;;;20.98;51.41
44825;BME280;30542;47.928;2.138;2022-12-29T11:51:25;99974.00;;;21.03;51.64
44825;BME280;30542;47.928;2.138;2022-12-29T12:01:38;99993.00;;;21.02;51.62
44825;BME280;30542;47.928;2.138;2022-12-29T12:06:45;99994.94;;;20.96;51.87
44825;BME280;30542;47.928;2.138;2022-12-29T12:11:46;99989.34;;;20.93;52.02
44825;BME280;30542;47.928;2.138;2022-12-29T12:17:05;99994.97;;;20.91;52.01
44825;BME280;30542;47.928;2.138;2022-12-29T12:22:18;99973.59;;;20.86;52.02
44825;BME280;30542;47.928;2.138;2022-12-29T12:27:26;99980.81;;;20.85;51.98
44825;BME280;30542;47.928;2.138;2022-12-29T12:43:08;99973.59;;;20.81;52.03
44825;BME280;30542;47.928;2.138;2022-12-29T13:25:18;99938.94;;;20.66;52.27
44825;BME280;30542;47.928;2.138;2022-12-29T13:30:21;99933.06;;;20.58;52.41
44825;BME280;30542;47.928;2.138;2022-12-29T13:40:34;99938.41;;;20.64;52.42
44825;BME280;30542;47.928;2.138;2022-12-29T13:45:39;99948.31;;;20.63;52.36
44825;BME280;30542;47.928;2.138;2022-12-29T13:50:41;99950.97;;;20.63;52.30
44825;BME280;30542;47.928;2.138;2022-12-29T14:06:26;99947.25;;;20.59;52.32
44825;BME280;30542;47.928;2.138;2022-12-29T14:11:31;99945.91;;;20.62;52.36
44825;BME280;30542;47.928;2.138;2022-12-29T14:16:34;99937.06;;;20.61;52.61
44825;BME280;30542;47.928;2.138;2022-12-29T14:21:34;99940.03;;;20.59;52.56
44825;BME280;30542;47.928;2.138;2022-12-29T14:26:35;99942.69;;;20.59;52.58
44825;BME280;30542;47.928;2.138;2022-12-29T14:31:36;99953.41;;;20.59;52.67
44825;BME280;30542;47.928;2.138;2022-12-29T14:42:00;99971.06;;;20.60;52.43
44825;BME280;30542;47.928;2.138;2022-12-29T14:47:07;99981.53;;;20.57;52.28
44825;BME280;30542;47.928;2.138;2022-12-29T14:52:19;99986.59;;;20.58;52.33
44825;BME280;30542;47.928;2.138;2022-12-29T14:58:02;99985.25;;;20.56;52.29
44825;BME280;30542;47.928;2.138;2022-12-29T15:02:47;99988.22;;;20.54;52.13
44825;BME280;30542;47.928;2.138;2022-12-29T15:07:49;99996.25;;;20.54;52.27
44825;BME280;30542;47.928;2.138;2022-12-29T15:12:54;99999.44;;;20.56;52.44
44825;BME280;30542;47.928;2.138;2022-12-29T15:17:55;99991.72;;;20.50;52.33
44825;BME280;30542;47.928;2.138;2022-12-29T15:22:58;100007.19;;;20.58;52.24
44825;BME280;30542;47.928;2.138;2022-12-29T15:28:03;100003.47;;;20.54;52.14
44825;BME280;30542;47.928;2.138;2022-12-29T15:33:18;100012.84;;;20.51;51.86
44825;BME280;30542;47.928;2.138;2022-12-29T15:38:24;100039.56;;;20.56;51.83
44825;BME280;30542;47.928;2.138;2022-12-29T15:43:40;100032.09;;;20.53;51.68
44825;BME280;30542;47.928;2.138;2022-12-29T15:48:44;100026.22;;;20.51;51.57
44825;BME280;30542;47.928;2.138;2022-12-29T15:53:50;100029.97;;;20.50;51.58
44825;BME280;30542;47.928;2.138;2022-12-29T15:58:51;100028.38;;;20.49;51.59
44825;BME280;30542;47.928;2.138;2022-12-29T16:03:52;100037.47;;;20.53;51.82
44825;BME280;30542;47.928;2.138;2022-12-29T16:14:01;100033.41;;;20.56;51.91
44825;BME280;30542;47.928;2.138;2022-12-29T16:19:11;100034.78;;;20.53;51.96
44825;BME280;30542;47.928;2.138;2022-12-29T16:24:24;100039.59;;;20.51;51.91
44825;BME280;30542;47.928;2.138;2022-12-29T16:29:28;100038.81;;;20.51;51.81
44825;BME280;30542;47.928;2.138;2022-12-29T16:34:42;100062.09;;;20.50;51.79
44825;BME280;30542;47.928;2.138;2022-12-29T16:39:43;100068.78;;;20.53;51.53
44825;BME280;30542;47.928;2.138;2022-12-29T16:44:43;100067.94;;;20.47;51.46
44825;BME280;30542;47.928;2.138;2022-12-29T16:49:48;100090.44;;;20.51;51.30
44825;BME280;30542;47.928;2.138;2022-12-29T16:54:56;100095.78;;;20.51;51.16
44825;BME280;30542;47.928;2.138;2022-12-29T17:00:03;100111.28;;;20.54;51.09
44825;BME280;30542;47.928;2.138;2022-12-29T17:05:04;100109.69;;;20.53;51.03
44825;BME280;30542;47.928;2.138;2022-12-29T17:10:05;100122.00;;;20.54;51.05
44825;BME280;30542;47.928;2.138;2022-12-29T17:15:10;100123.59;;;20.55;50.87
44825;BME280;30542;47.928;2.138;2022-12-29T17:20:16;100111.28;;;20.59;50.98
44825;BME280;30542;47.928;2.138;2022-12-29T17:25:22;100113.94;;;20.59;50.94
44825;BME280;30542;47.928;2.138;2022-12-29T17:30:24;100108.59;;;20.59;51.05
44825;BME280;30542;47.928;2.138;2022-12-29T17:35:26;100122.53;;;20.62;51.17
44825;BME280;30542;47.928;2.138;2022-12-29T17:40:29;100127.03;;;20.61;51.13
44825;BME280;30542;47.928;2.138;2022-12-29T17:45:32;100125.72;;;20.58;51.12
44825;BME280;30542;47.928;2.138;2022-12-29T17:50:32;100136.94;;;20.60;51.21
44825;BME280;30542;47.928;2.138;2022-12-29T17:55:33;100142.31;;;20.60;51.31
44825;BME280;30542;47.928;2.138;2022-12-29T18:00:37;100152.47;;;20.64;51.23
44825;BME280;30542;47.928;2.138;2022-12-29T18:05:37;100141.50;;;20.60;52.02
44825;BME280;30542;47.928;2.138;2022-12-29T18:10:38;100158.91;;;20.63;52.60
44825;BME280;30542;47.928;2.138;2022-12-29T18:15:39;100163.72;;;20.66;53.04
44825;BME280;30542;47.928;2.138;2022-12-29T18:20:58;100151.97;;;20.62;53.58
44825;BME280;30542;47.928;2.138;2022-12-29T18:26:02;100148.72;;;20.65;53.92
44825;BME280;30542;47.928;2.138;2022-12-29T18:31:03;100151.69;;;20.63;54.10
44825;BME280;30542;47.928;2.138;2022-12-29T18:36:04;100159.44;;;20.59;54.51
44825;BME280;30542;47.928;2.138;2022-12-29T18:41:04;100169.63;;;20.57;54.65
44825;BME280;30542;47.928;2.138;2022-12-29T18:46:05;100161.84;;;20.56;54.95
44825;BME280;30542;47.928;2.138;2022-12-29T18:51:14;100175.50;;;20.54;54.92
44825;BME280;30542;47.928;2.138;2022-12-29T18:56:14;100175.50;;;20.54;55.08
44825;BME280;30542;47.928;2.138;2022-12-29T19:01:20;100179.28;;;20.53;55.17
44825;BME280;30542;47.928;2.138;2022-12-29T19:06:21;100192.63;;;20.48;55.29
44825;BME280;30542;47.928;2.138;2022-12-29T19:11:21;100189.94;;;20.43;55.62
44825;BME280;30542;47.928;2.138;2022-12-29T19:16:23;100214.28;;;20.42;55.54
44825;BME280;30542;47.928;2.138;2022-12-29T19:21:26;100204.41;;;20.42;55.47
44825;BME280;30542;47.928;2.138;2022-12-29T19:26:35;100203.59;;;20.42;55.41
44825;BME280;30542;47.928;2.138;2022-12-29T19:31:36;100212.94;;;20.44;55.59
44825;BME280;30542;47.928;2.138;2022-12-29T19:36:37;100212.41;;;20.47;55.44
44825;BME280;30542;47.928;2.138;2022-12-29T19:41:38;100214.56;;;20.45;55.43
44825;BME280;30542;47.928;2.138;2022-12-29T19:46:38;100215.38;;;20.46;55.45
44825;BME280;30542;47.928;2.138;2022-12-29T19:51:39;100212.94;;;20.44;55.42
44825;BME280;30542;47.928;2.138;2022-12-29T19:56:39;100217.50;;;20.44;55.43
44825;BME280;30542;47.928;2.138;2022-12-29T20:01:42;100222.84;;;20.44;55.37
44825;BME280;30542;47.928;2.138;2022-12-29T20:06:42;100222.03;;;20.43;55.39
44825;BME280;30542;47.928;2.138;2022-12-29T20:11:42;100227.94;;;20.45;55.39
44825;BME280;30542;47.928;2.138;2022-12-29T20:16:43;100223.63;;;20.44;55.46
44825;BME280;30542;47.928;2.138;2022-12-29T20:21:43;100225.50;;;20.44;55.59
44825;BME280;30542;47.928;2.138;2022-12-29T20:26:43;100220.44;;;20.42;55.40
44825;BME280;30542;47.928;2.138;2022-12-29T20:31:45;100221.53;;;20.41;55.47
44825;BME280;30542;47.928;2.138;2022-12-29T20:36:47;100228.47;;;20.42;55.40
44825;BME280;30542;47.928;2.138;2022-12-29T20:41:47;100223.13;;;20.42;55.58
44825;BME280;30542;47.928;2.138;2022-12-29T20:46:48;100224.72;;;20.43;55.27
44825;BME280;30542;47.928;2.138;2022-12-29T20:51:48;100224.72;;;20.43;55.23
44825;BME280;30542;47.928;2.138;2022-12-29T20:56:49;100222.03;;;20.43;55.25
44825;BME280;30542;47.928;2.138;2022-12-29T21:01:51;100215.63;;;20.39;55.27
44825;BME280;30542;47.928;2.138;2022-12-29T21:06:51;100219.91;;;20.45;55.19
44825;BME280;30542;47.928;2.138;2022-12-29T21:11:52;100224.72;;;20.43;55.22
44825;BME280;30542;47.928;2.138;2022-12-29T21:16:52;100233.53;;;20.44;55.08
44825;BME280;30542;47.928;2.138;2022-12-29T21:21:53;100230.06;;;20.43;55.18
44825;BME280;30542;47.928;2.138;2022-12-29T21:26:53;100236.22;;;20.44;54.96
44825;BME280;30542;47.928;2.138;2022-12-29T21:31:53;100226.31;;;20.44;54.99
44825;BME280;30542;47.928;2.138;2022-12-29T21:36:54;100212.97;;;20.24;55.07
44825;BME280;30542;47.928;2.138;2022-12-29T21:41:55;100237.84;;;20.45;54.84
44825;BME280;30542;47.928;2.138;2022-12-29T21:46:59;100233.81;;;20.42;54.79
44825;BME280;30542;47.928;2.138;2022-12-29T21:51:59;100244.53;;;20.42;54.90
44825;BME280;30542;47.928;2.138;2022-12-29T21:57:00;100247.22;;;20.37;54.86
44825;BME280;30542;47.928;2.138;2022-12-29T22:02:02;100239.69;;;20.39;54.61
44825;BME280;30542;47.928;2.138;2022-12-29T22:07:21;100236.47;;;20.32;54.94
44825;BME280;30542;47.928;2.138;2022-12-29T22:12:40;100242.38;;;20.29;55.15
44825;BME280;30542;47.928;2.138;2022-12-29T22:18:00;100237.03;;;20.29;55.33
44825;BME280;30542;47.928;2.138;2022-12-29T22:23:01;100241.59;;;20.28;55.22
44825;BME280;30542;47.928;2.138;2022-12-29T22:28:01;100248.00;;;20.27;54.89
44825;BME280;30542;47.928;2.138;2022-12-29T22:33:02;100246.91;;;20.23;55.04
44825;BME280;30542;47.928;2.138;2022-12-29T22:38:02;100244.00;;;20.20;55.08
44825;BME280;30542;47.928;2.138;2022-12-29T22:43:03;100249.88;;;20.17;54.82
44825;BME280;30542;47.928;2.138;2022-12-29T22:48:04;100255.22;;;20.11;55.11
44825;BME280;30542;47.928;2.138;2022-12-29T22:53:04;100259.75;;;20.06;55.04
44825;BME280;30542;47.928;2.138;2022-12-29T22:58:05;100265.59;;;20.03;54.90
44825;BME280;30542;47.928;2.138;2022-12-29T23:03:06;100256.50;;;19.99;55.14
44825;BME280;30542;47.928;2.138;2022-12-29T23:08:06;100256.25;;;19.95;54.94
44825;BME280;30542;47.928;2.138;2022-12-29T23:13:06;100241.28;;;19.94;54.89
44825;BME280;30542;47.928;2.138;2022-12-29T23:18:07;100222.84;;;19.82;55.04
44825;BME280;30542;47.928;2.138;2022-12-29T23:23:07;100228.97;;;19.88;54.63
44825;BME280;30542;47.928;2.138;2022-12-29T23:28:08;100232.19;;;19.85;54.79
44825;BME280;30542;47.928;2.138;2022-12-29T23:33:08;100223.63;;;19.83;54.70
44825;BME280;30542;47.928;2.138;2022-12-29T23:38:09;100235.91;;;19.79;54.87
44825;BME280;30542;47.928;2.138;2022-12-29T23:43:09;100240.97;;;19.75;54.90
44825;BME280;30542;47.928;2.138;2022-12-29T23:48:09;100243.09;;;19.73;54.81
44825;BME280;30542;47.928;2.138;2022-12-29T23:53:10;100239.09;;;19.71;54.63
44825;BME280;30542;47.928;2.138;2022-12-29T23:58:11;100225.47;;;19.67;54.68
